Time;durP1;ratioP1;P1;durP2;ratioP2;P2;SDS_P1;SDS_P2;PMS_P1;PMS_P2;Temp;Humidity;BMP_temperature;BMP_pressure;BME280_temperature;BME280_humidity;BME280_pressure;Samples;Min_cycle;Max_cycle;Signal;HPM_P1;HPM_P2
2021/12/24 00:01:17;;;;;;;3.85;3.05;;;1.90;99.90;;;;;;4826535;29;20064;-66
2021/12/24 00:03:44;;;;;;;3.92;2.63;;;1.90;99.90;;;;;;4826324;29;20096;-64
2021/12/24 00:06:12;;;;;;;4.63;2.28;;;1.90;99.90;;;;;;4826625;29;20164;-66
2021/12/24 00:08:40;;;;;;;5.80;1.90;;;1.90;99.90;;;;;;4824453;29;20156;-64
2021/12/24 00:11:07;;;;;;;2.35;1.30;;;1.70;99.90;;;;;;4826660;29;20876;-66
2021/12/24 00:13:38;;;;;;;4.45;2.22;;;1.60;99.90;;;;;;4827086;29;20195;-66
2021/12/24 00:37:29;;;;;;;3.63;2.22;;;1.10;99.90;;;;;;4822656;29;20064;-67
2021/12/24 00:42:44;;;;;;;4.80;3.42;;;1.00;99.90;;;;;;4833583;29;20120;-65
2021/12/24 00:45:13;;;;;;;;;;;1.00;99.90;;;;;;4824081;29;20083;-64
2021/12/24 00:47:40;;;;;;;5.07;2.30;;;1.00;99.90;;;;;;4821556;29;19963;-63
2021/12/24 00:50:11;;;;;;;2.10;1.80;;;1.00;99.90;;;;;;4821569;29;20139;-66
2021/12/24 00:52:49;;;;;;;3.72;2.15;;;1.00;99.90;;;;;;4824066;29;20068;-66
2021/12/24 00:55:18;;;;;;;3.30;1.67;;;1.00;99.90;;;;;;4828354;29;20060;-65
2021/12/24 00:57:55;;;;;;;1.67;1.25;;;0.90;99.90;;;;;;4831480;29;20199;-68
2021/12/24 01:00:27;;;;;;;3.42;1.10;;;1.00;99.90;;;;;;4827302;29;20519;-64
2021/12/24 01:02:56;;;;;;;1.00;0.80;;;1.00;99.90;;;;;;4831275;29;20056;-64
2021/12/24 01:05:25;;;;;;;1.48;1.02;;;1.00;99.90;;;;;;4828074;29;20057;-64
2021/12/24 01:07:52;;;;;;;0.90;0.70;;;1.10;99.90;;;;;;4845334;29;20408;-66
2021/12/24 01:10:26;;;;;;;1.92;1.05;;;1.00;99.90;;;;;;4828700;29;20352;-64
2021/12/24 01:12:54;;;;;;;0.85;0.63;;;0.90;99.90;;;;;;4827639;29;20063;-64
2021/12/24 01:15:21;;;;;;;1.45;1.15;;;0.90;99.90;;;;;;4841602;29;20064;-64
2021/12/24 01:18:08;;;;;;;2.88;1.65;;;0.90;99.90;;;;;;4840469;29;20054;-63
2021/12/24 01:20:44;;;;;;;1.23;0.90;;;0.80;99.90;;;;;;4824840;29;20056;-64
2021/12/24 01:26:02;;;;;;;0.77;0.70;;;0.80;99.90;;;;;;4841794;29;20055;-64
2021/12/24 01:39:23;;;;;;;1.20;1.05;;;1.00;99.90;;;;;;4841040;29;20055;-65
2021/12/24 01:44:38;;;;;;;1.27;0.80;;;0.90;99.90;;;;;;4840116;29;20068;-63
2021/12/24 01:47:08;;;;;;;1.65;1.05;;;0.90;99.90;;;;;;4827096;29;20507;-65
2021/12/24 01:49:36;;;;;;;2.65;1.42;;;0.90;99.90;;;;;;4830785;29;20084;-63
2021/12/24 01:52:06;;;;;;;4.13;2.45;;;0.80;99.90;;;;;;4829511;29;20056;-65
2021/12/24 01:54:38;;;;;;;1.30;0.80;;;0.80;99.90;;;;;;4827782;29;20218;-63
2021/12/24 01:57:05;;;;;;;1.45;0.65;;;0.80;99.90;;;;;;4828535;29;20053;-67
2021/12/24 01:59:32;;;;;;;2.00;1.10;;;0.80;99.90;;;;;;4843681;29;20052;-66
2021/12/24 02:01:59;;;;;;;1.25;1.15;;;0.80;99.90;;;;;;4843996;29;20072;-66
2021/12/24 02:04:28;;;;;;;1.38;1.20;;;0.80;99.90;;;;;;4828303;29;20182;-64
2021/12/24 02:06:55;;;;;;;3.13;0.93;;;0.80;99.90;;;;;;4832559;29;20053;-64
2021/12/24 02:09:22;;;;;;;1.15;0.98;;;0.70;99.90;;;;;;4826404;29;20071;-65
2021/12/24 02:11:49;;;;;;;1.90;1.25;;;0.60;99.90;;;;;;4827073;29;20060;-64
2021/12/24 02:14:21;;;;;;;2.55;1.23;;;0.60;99.90;;;;;;4839168;29;20064;-63
2021/12/24 02:30:21;;;;;;;1.90;0.55;;;0.40;99.90;;;;;;4827687;29;20248;-66
2021/12/24 02:32:48;;;;;;;1.65;0.73;;;0.30;99.90;;;;;;4827446;29;20059;-68
2021/12/24 02:35:18;;;;;;;0.90;0.90;;;0.40;99.90;;;;;;4829503;29;21061;-69
2021/12/24 02:37:46;;;;;;;0.82;0.70;;;0.40;99.90;;;;;;4829230;29;20060;-64
2021/12/24 02:40:12;;;;;;;2.83;0.85;;;0.40;99.90;;;;;;4823386;29;20204;-66
2021/12/24 02:42:39;;;;;;;1.60;1.50;;;0.40;99.90;;;;;;4822616;29;20135;-67
2021/12/24 02:45:07;;;;;;;2.58;1.20;;;0.40;99.90;;;;;;4821279;29;20059;-68
2021/12/24 02:47:55;;;;;;;1.08;0.98;;;0.40;99.90;;;;;;4823930;29;20064;-66
2021/12/24 02:55:37;;;;;;;7.53;1.63;;;0.50;99.90;;;;;;4826607;29;20060;-63
2021/12/24 02:58:06;;;;;;;1.10;0.77;;;0.50;99.90;;;;;;4826595;29;20980;-64
2021/12/24 03:00:33;;;;;;;2.20;1.15;;;0.50;99.90;;;;;;4825562;29;20097;-64
2021/12/24 03:03:00;;;;;;;1.30;0.80;;;0.50;99.90;;;;;;4828797;29;20052;-66
2021/12/24 03:05:27;;;;;;;1.02;1.00;;;0.50;99.90;;;;;;4824746;29;20570;-66
2021/12/24 03:07:54;;;;;;;1.25;1.15;;;0.50;99.90;;;;;;4823753;29;20165;-65
2021/12/24 03:10:22;;;;;;;1.42;1.00;;;0.40;99.90;;;;;;4836278;29;20056;-63
2021/12/24 03:12:52;;;;;;;2.25;1.13;;;0.40;99.90;;;;;;4826740;29;20859;-65
2021/12/24 03:15:22;;;;;;;1.55;1.25;;;0.50;99.90;;;;;;4826695;29;20223;-64
2021/12/24 03:17:53;;;;;;;1.63;1.50;;;0.40;99.90;;;;;;4828381;29;20060;-66
2021/12/24 03:20:21;;;;;;;1.25;0.90;;;0.40;99.90;;;;;;4826574;29;20076;-63
2021/12/24 03:23:04;;;;;;;2.03;1.05;;;0.40;99.90;;;;;;4842762;29;20067;-65
2021/12/24 03:25:32;;;;;;;2.38;1.08;;;0.40;99.90;;;;;;4843417;29;20059;-65
2021/12/24 03:27:59;;;;;;;2.03;1.85;;;0.30;99.90;;;;;;4841528;29;20135;-66
2021/12/24 03:30:27;;;;;;;2.58;1.23;;;0.30;99.90;;;;;;4824857;29;20400;-64
2021/12/24 03:32:55;;;;;;;1.40;1.30;;;0.30;99.90;;;;;;4842179;29;20063;-64
2021/12/24 03:35:22;;;;;;;0.98;0.80;;;0.30;99.90;;;;;;4828578;29;20064;-64
2021/12/24 03:37:50;;;;;;;2.45;1.30;;;0.30;99.90;;;;;;4843279;29;20052;-63
2021/12/24 03:40:17;;;;;;;3.30;1.65;;;0.20;99.90;;;;;;4841467;29;20064;-67
2021/12/24 03:42:44;;;;;;;1.50;1.40;;;0.10;99.90;;;;;;4826659;29;20096;-66
2021/12/24 03:45:34;;;;;;;1.88;0.98;;;0.00;99.90;;;;;;4827312;29;20059;-66
2021/12/24 03:48:13;;;;;;;1.98;1.60;;;0.00;99.90;;;;;;4843232;29;20048;-64
2021/12/24 03:56:15;;;;;;;1.20;1.05;;;-0.10;99.90;;;;;;4826606;29;20059;-64
2021/12/24 03:58:43;;;;;;;2.80;1.17;;;-0.10;99.90;;;;;;4840059;29;20059;-66
2021/12/24 04:01:28;;;;;;;2.58;1.00;;;-0.10;99.90;;;;;;4827838;29;21047;-65
2021/12/24 04:04:16;;;;;;;4.78;1.60;;;-0.10;99.90;;;;;;4826924;29;20067;-64
2021/12/24 04:07:12;;;;;;;1.35;1.02;;;-0.20;99.90;;;;;;4794362;29;20057;-63
2021/12/24 04:13:00;;;;;;;2.45;1.00;;;-0.20;99.90;;;;;;4823984;29;20147;-63
2021/12/24 04:15:27;;;;;;;1.45;1.20;;;-0.10;99.90;;;;;;4824094;29;20064;-63
2021/12/24 04:17:54;;;;;;;2.10;1.25;;;-0.10;99.90;;;;;;4821719;29;20064;-65
2021/12/24 04:25:52;;;;;;;2.42;0.50;;;-0.10;99.90;;;;;;4821187;29;20060;-69
2021/12/24 04:28:19;;;;;;;0.70;0.52;;;-0.10;99.90;;;;;;4835476;29;20056;-66
2021/12/24 04:30:51;;;;;;;0.75;0.75;;;-0.10;99.90;;;;;;4839515;29;20585;-66
2021/12/24 04:33:28;;;;;;;1.85;0.50;;;-0.10;99.90;;;;;;4822581;29;20056;-65
2021/12/24 04:38:43;;;;;;;0.45;0.40;;;-0.20;99.90;;;;;;4838468;29;20768;-67
2021/12/24 05:03:33;;;;;;;0.73;0.28;;;-0.30;99.90;;;;;;4824394;29;20139;-66
2021/12/24 05:08:48;;;;;;;0.35;0.10;;;-0.60;99.90;;;;;;4837588;29;22579;-66
2021/12/24 05:11:17;;;;;;;0.77;0.30;;;-0.70;99.90;;;;;;4835822;29;20143;-65
2021/12/24 05:13:45;;;;;;;0.25;0.20;;;-0.70;99.90;;;;;;4839457;29;20056;-64
2021/12/24 05:17:18;;;;;;;1.73;0.15;;;-0.70;99.90;;;;;;4822369;29;20075;-64
2021/12/24 05:22:41;;;;;;;0.20;0.20;;;-0.70;99.90;;;;;;4842134;29;20104;-65
2021/12/24 05:25:13;;;;;;;0.47;0.22;;;-0.80;99.90;;;;;;4842640;29;20083;-69
2021/12/24 05:27:40;;;;;;;0.68;0.68;;;-0.80;99.90;;;;;;4828212;29;20142;-65
2021/12/24 05:30:07;;;;;;;0.10;0.10;;;-0.90;99.90;;;;;;4830997;29;20201;-64
2021/12/24 05:32:35;;;;;;;1.67;0.30;;;-0.90;99.90;;;;;;4828441;29;20128;-64
2021/12/24 05:35:04;;;;;;;0.30;0.22;;;-0.90;99.90;;;;;;4829563;29;20190;-64
2021/12/24 05:37:36;;;;;;;2.00;0.40;;;-1.00;99.90;;;;;;4843513;29;20934;-66
2021/12/24 05:40:04;;;;;;;0.80;0.10;;;-1.10;99.90;;;;;;4827111;29;20044;-66
2021/12/24 05:42:33;;;;;;;3.40;0.45;;;-1.20;99.90;;;;;;4840379;29;22521;-63
2021/12/24 05:45:05;;;;;;;0.13;0.10;;;-1.30;99.90;;;;;;4823847;29;20071;-65
2021/12/24 05:48:07;;;;;;;5.35;0.90;;;-1.40;99.90;;;;;;4786596;29;20185;-64
2021/12/24 05:50:34;;;;;;;0.98;0.50;;;-1.40;99.90;;;;;;4828075;29;20965;-66
2021/12/24 05:53:20;;;;;;;0.82;0.20;;;-1.50;99.90;;;;;;4826170;29;20068;-65
2021/12/24 05:56:10;;;;;;;0.20;0.20;;;-1.50;99.90;;;;;;4827011;29;20112;-63
2021/12/24 05:58:40;;;;;;;1.73;0.28;;;-1.50;99.90;;;;;;4824994;29;20069;-63
2021/12/24 06:01:07;;;;;;;0.40;0.35;;;-1.60;99.90;;;;;;4829919;29;20206;-66
2021/12/24 06:03:42;;;;;;;0.88;0.30;;;-1.60;99.90;;;;;;4829157;29;20636;-63
2021/12/24 06:06:09;;;;;;;0.65;0.28;;;-1.60;99.90;;;;;;4830646;29;20056;-66
2021/12/24 06:08:36;;;;;;;0.52;0.30;;;-1.60;99.90;;;;;;4828418;29;21754;-67
2021/12/24 06:11:05;;;;;;;0.68;0.20;;;-1.70;99.90;;;;;;4829550;29;20057;-67
2021/12/24 06:13:34;;;;;;;2.30;0.68;;;-1.70;99.90;;;;;;4830006;29;20456;-65
2021/12/24 06:16:01;;;;;;;4.15;0.50;;;-1.80;99.90;;;;;;4827978;29;20443;-65
2021/12/24 06:18:29;;;;;;;1.77;0.52;;;-1.80;99.90;;;;;;4827751;29;20484;-63
2021/12/24 06:21:03;;;;;;;0.52;0.38;;;-1.80;99.90;;;;;;4827640;29;20132;-69
2021/12/24 06:23:31;;;;;;;3.67;0.90;;;-1.80;99.90;;;;;;4826287;29;20045;-63
2021/12/24 06:26:00;;;;;;;2.13;0.45;;;-1.80;99.90;;;;;;4824882;29;20052;-62
2021/12/24 06:28:27;;;;;;;2.40;1.33;;;-1.90;99.90;;;;;;4822913;29;20056;-66
2021/12/24 06:30:55;;;;;;;1.75;0.60;;;-2.00;99.90;;;;;;4824968;29;20594;-65
2021/12/24 06:33:22;;;;;;;4.30;0.70;;;-2.00;99.90;;;;;;4826918;29;20080;-67
2021/12/24 06:35:51;;;;;;;2.15;0.80;;;-2.10;99.90;;;;;;4829133;29;20409;-63
2021/12/24 06:38:18;;;;;;;1.58;0.45;;;-2.20;99.90;;;;;;4827034;29;20092;-67
2021/12/24 06:40:45;;;;;;;4.20;0.57;;;-2.20;99.90;;;;;;4828518;29;20056;-63
2021/12/24 06:43:12;;;;;;;3.80;1.37;;;-2.30;99.90;;;;;;4829617;29;20060;-64
2021/12/24 06:45:39;;;;;;;7.93;2.00;;;-2.30;99.90;;;;;;4827969;29;20053;-64
2021/12/24 06:48:06;;;;;;;4.03;2.67;;;-2.30;99.90;;;;;;4828413;29;20060;-64
2021/12/24 06:50:34;;;;;;;4.20;1.20;;;-2.30;99.90;;;;;;4827116;29;20194;-63
2021/12/24 06:53:01;;;;;;;8.73;1.17;;;-2.40;99.90;;;;;;4827591;29;20052;-66
2021/12/24 06:55:29;;;;;;;5.50;1.07;;;-2.50;99.90;;;;;;4828405;29;20387;-67
2021/12/24 06:58:02;;;;;;;5.87;1.00;;;-2.50;99.90;;;;;;4843510;29;20053;-67
2021/12/24 07:00:30;;;;;;;5.67;1.43;;;-2.50;99.90;;;;;;4828705;29;20127;-65
2021/12/24 07:02:57;;;;;;;2.57;0.73;;;-2.50;99.90;;;;;;4826490;29;20464;-63
2021/12/24 07:05:24;;;;;;;1.83;0.80;;;-2.50;99.90;;;;;;4825456;29;20729;-66
2021/12/24 07:07:52;;;;;;;5.70;0.57;;;-2.50;99.90;;;;;;4827670;29;20059;-67
2021/12/24 07:10:19;;;;;;;1.73;0.70;;;-2.60;99.90;;;;;;4827743;29;20994;-66
2021/12/24 07:12:46;;;;;;;4.23;1.07;;;-2.50;99.90;;;;;;4829492;29;20057;-63
2021/12/24 07:15:16;;;;;;;3.87;0.83;;;-2.60;99.90;;;;;;4826389;29;20123;-67
2021/12/24 07:17:44;;;;;;;4.78;2.42;;;-2.60;99.90;;;;;;4828053;29;20175;-68
2021/12/24 07:20:11;;;;;;;1.70;1.60;;;-2.60;99.90;;;;;;4827305;29;20088;-68
2021/12/24 07:22:38;;;;;;;6.23;1.53;;;-2.60;99.90;;;;;;4826242;29;20086;-65
2021/12/24 07:25:06;;;;;;;2.97;0.90;;;-2.70;99.90;;;;;;4824982;29;20375;-64
2021/12/24 07:27:35;;;;;;;7.67;0.80;;;-2.70;99.90;;;;;;4826161;29;20064;-64
2021/12/24 07:30:06;;;;;;;3.50;0.73;;;-2.70;99.90;;;;;;4823063;29;20209;-64
2021/12/24 07:32:33;;;;;;;4.53;0.60;;;-2.70;99.90;;;;;;4825366;29;20101;-66
2021/12/24 07:35:00;;;;;;;4.87;0.70;;;-2.70;99.90;;;;;;4827427;29;20048;-66
2021/12/24 07:37:27;;;;;;;5.30;0.73;;;-2.80;99.90;;;;;;4826729;29;20079;-64
2021/12/24 07:39:54;;;;;;;4.20;0.90;;;-2.80;99.90;;;;;;4826185;29;22552;-67
2021/12/24 07:42:21;;;;;;;5.77;1.23;;;-2.80;99.90;;;;;;4825515;29;20132;-67
2021/12/24 07:44:48;;;;;;;2.27;1.90;;;-2.80;99.90;;;;;;4828838;29;20063;-63
2021/12/24 07:47:26;;;;;;;2.23;1.17;;;-2.70;99.90;;;;;;4827527;29;20056;-67
2021/12/24 07:50:04;;;;;;;7.17;1.07;;;-2.80;99.90;;;;;;4828900;29;20128;-64
2021/12/24 07:52:31;;;;;;;2.70;0.83;;;-2.90;99.90;;;;;;4822896;29;20075;-69
2021/12/24 07:54:58;;;;;;;3.00;0.80;;;-2.90;99.90;;;;;;4824386;29;20411;-70
2021/12/24 07:57:45;;;;;;;1.53;0.77;;;-3.00;99.90;;;;;;4826197;29;20116;-66
2021/12/24 08:00:13;;;;;;;3.93;0.67;;;-3.10;99.90;;;;;;4827303;29;20056;-69
2021/12/24 08:02:41;;;;;;;4.70;0.70;;;-3.10;99.90;;;;;;4826586;29;20048;-70
2021/12/24 08:05:09;;;;;;;1.77;0.53;;;-3.20;99.90;;;;;;4827488;29;20147;-66
2021/12/24 08:07:36;;;;;;;2.80;0.60;;;-3.20;99.90;;;;;;4829042;29;20291;-71
2021/12/24 08:10:03;;;;;;;6.30;1.50;;;-3.20;99.90;;;;;;4829290;29;20905;-70
2021/12/24 08:12:30;;;;;;;3.77;0.97;;;-3.20;99.90;;;;;;4824749;29;20216;-70
2021/12/24 08:14:57;;;;;;;4.17;1.30;;;-3.30;99.90;;;;;;4822685;29;20052;-70
2021/12/24 08:17:24;;;;;;;0.77;0.30;;;-3.40;99.90;;;;;;4826520;29;20531;-68
2021/12/24 08:19:51;;;;;;;4.30;0.70;;;-3.40;99.90;;;;;;4828031;29;21078;-69
2021/12/24 08:22:18;;;;;;;2.20;1.07;;;-3.50;99.90;;;;;;4826561;29;20144;-70
2021/12/24 08:24:46;;;;;;;2.40;1.00;;;-3.50;99.90;;;;;;4826967;29;20045;-66
2021/12/24 08:27:13;;;;;;;1.83;0.63;;;-3.50;99.90;;;;;;4825226;29;20181;-67
2021/12/24 08:29:40;;;;;;;2.83;0.57;;;-3.50;99.90;;;;;;4821571;29;20059;-67
2021/12/24 08:32:08;;;;;;;2.33;0.63;;;-3.40;99.90;;;;;;4824602;29;20483;-65
2021/12/24 08:34:35;;;;;;;5.90;1.00;;;-3.50;99.90;;;;;;4821341;29;20139;-65
2021/12/24 08:37:03;;;;;;;6.97;1.73;;;-3.50;99.90;;;;;;4825861;29;20135;-64
2021/12/24 08:39:31;;;;;;;2.80;1.07;;;-3.40;99.90;;;;;;4824835;29;20147;-66
2021/12/24 08:41:59;;;;;;;2.73;0.60;;;-3.40;99.90;;;;;;4824656;29;20067;-69
2021/12/24 08:44:30;;;;;;;3.40;0.83;;;-3.40;99.90;;;;;;4821366;29;20232;-66
2021/12/24 08:47:01;;;;;;;4.70;1.40;;;-3.40;99.90;;;;;;4824684;29;20064;-69
2021/12/24 08:49:29;;;;;;;1.33;0.83;;;-3.50;99.90;;;;;;4823832;29;20052;-65
2021/12/24 08:51:56;;;;;;;3.80;0.83;;;-3.60;99.90;;;;;;4828913;29;20048;-64
2021/12/24 08:54:24;;;;;;;2.40;0.70;;;-3.70;99.90;;;;;;4825145;29;20069;-66
2021/12/24 08:56:53;;;;;;;0.90;0.87;;;-3.70;99.90;;;;;;4829638;29;20045;-70
2021/12/24 08:59:21;;;;;;;2.00;1.00;;;-3.80;99.90;;;;;;4831430;29;20052;-70
2021/12/24 09:01:47;;;;;;;4.43;0.97;;;-3.80;99.90;;;;;;4831725;29;20097;-65
2021/12/24 09:04:15;;;;;;;3.30;0.63;;;-3.80;99.90;;;;;;4830568;29;20060;-68
2021/12/24 09:06:42;;;;;;;4.33;1.00;;;-3.80;99.90;;;;;;4829569;29;20057;-65
2021/12/24 09:09:10;;;;;;;4.50;1.50;;;-3.80;99.90;;;;;;4829923;29;22082;-65
2021/12/24 09:11:41;;;;;;;2.73;0.83;;;-3.90;99.90;;;;;;4830512;29;20260;-70
2021/12/24 09:14:08;;;;;;;4.57;1.10;;;-3.90;99.90;;;;;;4830359;29;20055;-67
2021/12/24 09:16:37;;;;;;;4.87;1.23;;;-3.90;99.90;;;;;;4828657;29;20056;-65
2021/12/24 09:19:08;;;;;;;3.40;0.70;;;-3.90;99.90;;;;;;4829668;29;20063;-66
2021/12/24 09:21:36;;;;;;;1.07;0.70;;;-3.90;99.90;;;;;;4830628;29;20059;-68
2021/12/24 09:24:06;;;;;;;2.97;0.93;;;-4.00;99.90;;;;;;4828993;29;20063;-66
2021/12/24 09:26:36;;;;;;;6.07;1.23;;;-4.00;99.90;;;;;;4826868;29;20061;-65
2021/12/24 09:29:05;;;;;;;1.53;0.77;;;-3.90;99.90;;;;;;4831731;29;20235;-65
2021/12/24 09:31:32;;;;;;;4.83;0.93;;;-4.00;99.90;;;;;;4828848;29;20056;-72
2021/12/24 09:33:59;;;;;;;1.27;0.50;;;-4.10;99.90;;;;;;4829686;29;20429;-68
2021/12/24 09:36:28;;;;;;;3.73;0.90;;;-4.00;99.90;;;;;;4830484;29;20061;-70
2021/12/24 09:38:58;;;;;;;1.43;0.60;;;-4.00;99.90;;;;;;4831027;29;21105;-70
2021/12/24 09:41:25;;;;;;;3.35;0.50;;;-4.10;99.90;;;;;;4828670;29;20207;-64
2021/12/24 09:43:52;;;;;;;1.63;0.50;;;-4.10;99.90;;;;;;4830568;29;20188;-70
2021/12/24 09:46:19;;;;;;;1.37;0.83;;;-4.00;99.90;;;;;;4825397;29;20124;-69
2021/12/24 09:48:46;;;;;;;0.83;0.53;;;-4.00;99.90;;;;;;4829717;29;20525;-69
2021/12/24 09:51:14;;;;;;;1.07;0.40;;;-4.00;99.90;;;;;;4829464;29;20106;-68
2021/12/24 09:53:41;;;;;;;2.03;0.40;;;-4.10;99.90;;;;;;4827167;29;20506;-67
2021/12/24 09:56:08;;;;;;;0.37;0.33;;;-4.10;99.90;;;;;;4826051;29;20063;-69
2021/12/24 09:58:34;;;;;;;0.73;0.57;;;-4.20;99.90;;;;;;4840388;29;20159;-70
2021/12/24 10:01:01;;;;;;;1.53;0.40;;;-4.20;99.90;;;;;;4824380;29;20147;-69
2021/12/24 10:03:36;;;;;;;1.67;0.40;;;-4.20;99.90;;;;;;4825548;29;20510;-66
2021/12/24 10:06:04;;;;;;;2.47;0.60;;;-4.10;99.90;;;;;;4829984;29;20115;-69
2021/12/24 10:08:32;;;;;;;1.53;0.50;;;-4.10;99.90;;;;;;4828301;29;20080;-66
2021/12/24 10:11:05;;;;;;;2.77;0.40;;;-4.10;99.90;;;;;;4829635;29;20143;-65
2021/12/24 10:13:37;;;;;;;4.07;0.50;;;-4.10;99.90;;;;;;4830021;29;20053;-66
2021/12/24 10:16:06;;;;;;;1.20;0.47;;;-4.10;99.90;;;;;;4829231;29;20159;-67
2021/12/24 10:18:48;;;;;;;0.20;0.20;;;-4.10;99.90;;;;;;4827673;29;20369;-68
2021/12/24 10:21:17;;;;;;;0.90;0.80;;;-4.00;99.90;;;;;;4831180;29;20187;-66
2021/12/24 10:24:03;;;;;;;1.50;0.40;;;-3.90;99.90;;;;;;4828675;29;20063;-66
2021/12/24 10:26:33;;;;;;;1.20;0.30;;;-4.00;99.90;;;;;;4827874;29;20171;-63
2021/12/24 10:29:10;;;;;;;3.27;0.53;;;-4.00;99.90;;;;;;4827424;29;20171;-69
2021/12/24 10:31:43;;;;;;;2.33;0.70;;;-3.90;99.90;;;;;;4826600;29;20479;-64
2021/12/24 10:34:16;;;;;;;2.43;0.50;;;-3.90;99.90;;;;;;4823889;29;20059;-69
2021/12/24 10:37:03;;;;;;;1.03;0.47;;;-3.80;99.90;;;;;;4823928;29;20972;-64
2021/12/24 10:39:36;;;;;;;1.03;0.53;;;-3.80;99.90;;;;;;4826951;29;20060;-70
2021/12/24 10:42:12;;;;;;;1.90;0.33;;;-3.90;99.90;;;;;;4827697;29;20104;-67
2021/12/24 10:44:41;;;;;;;0.63;0.30;;;-3.90;99.90;;;;;;4826182;29;20143;-68
2021/12/24 10:47:09;;;;;;;1.03;0.50;;;-3.90;99.90;;;;;;4826643;29;20698;-67
2021/12/24 10:54:58;;;;;;;1.43;1.33;;;-4.00;99.90;;;;;;4825680;29;20067;-70
2021/12/24 10:57:34;;;;;;;2.47;0.63;;;-3.90;99.90;;;;;;4829432;29;20087;-63
2021/12/24 11:00:05;;;;;;;1.53;0.77;;;-3.90;99.90;;;;;;4827757;29;20060;-67
2021/12/24 11:02:35;;;;;;;0.93;0.53;;;-4.00;99.90;;;;;;4825777;29;20061;-66
2021/12/24 11:05:04;;;;;;;1.85;0.40;;;-3.90;99.90;;;;;;4829771;29;20117;-72
2021/12/24 11:07:42;;;;;;;2.27;0.50;;;-3.90;99.90;;;;;;4828614;29;23288;-65
2021/12/24 11:10:13;;;;;;;1.73;0.80;;;-3.80;99.90;;;;;;4827011;29;20151;-68
2021/12/24 11:12:41;;;;;;;4.57;0.50;;;-3.70;99.90;;;;;;4825239;29;20056;-65
2021/12/24 11:15:21;;;;;;;3.33;0.40;;;-3.70;99.90;;;;;;4828739;29;20146;-64
2021/12/24 11:17:49;;;;;;;0.30;0.30;;;-3.70;99.90;;;;;;4826486;29;20063;-70
2021/12/24 11:20:16;;;;;;;1.27;0.60;;;-3.70;99.90;;;;;;4824583;29;20498;-66
2021/12/24 11:23:04;;;;;;;1.37;0.20;;;-3.70;99.90;;;;;;4827067;29;20071;-65
2021/12/24 11:25:47;;;;;;;1.50;0.53;;;-3.70;99.90;;;;;;4825409;29;20064;-65
2021/12/24 11:28:15;;;;;;;2.40;0.80;;;-3.60;99.90;;;;;;4828781;29;20188;-66
2021/12/24 11:30:45;;;;;;;3.03;0.40;;;-3.50;99.90;;;;;;4827504;29;20053;-64
2021/12/24 11:33:19;;;;;;;0.52;0.35;;;-3.50;99.90;;;;;;4828363;29;20048;-64
2021/12/24 11:35:48;;;;;;;0.47;0.20;;;-3.50;99.90;;;;;;4827082;29;22269;-66
2021/12/24 11:38:19;;;;;;;3.45;1.23;;;-3.50;99.90;;;;;;4829036;29;20230;-65
2021/12/24 11:40:46;;;;;;;;;;;-3.50;99.90;;;;;;4827488;29;20052;-68
2021/12/24 11:43:14;;;;;;;8.00;0.93;;;-3.60;99.90;;;;;;4829190;29;19942;-65
2021/12/24 11:45:41;;;;;;;1.33;0.60;;;-3.50;99.90;;;;;;4826436;29;20092;-66
2021/12/24 11:48:08;;;;;;;1.43;0.50;;;-3.50;99.90;;;;;;4825982;29;20072;-70
2021/12/24 11:50:36;;;;;;;0.37;0.37;;;-3.50;99.90;;;;;;4824270;29;20057;-65
2021/12/24 11:53:09;;;;;;;1.03;0.40;;;-3.50;99.90;;;;;;4824822;29;22683;-68
2021/12/24 11:55:43;;;;;;;5.63;1.57;;;-3.50;99.90;;;;;;4822636;29;20076;-68
2021/12/24 11:58:23;;;;;;;1.97;0.70;;;-3.50;99.90;;;;;;4822222;29;20105;-68
2021/12/24 12:00:55;;;;;;;1.30;0.70;;;-3.50;99.90;;;;;;4824325;29;20144;-66
2021/12/24 12:03:41;;;;;;;1.67;0.73;;;-3.60;99.90;;;;;;4823476;29;20057;-64
2021/12/24 12:06:28;;;;;;;1.73;0.43;;;-3.60;99.90;;;;;;4822187;29;20063;-68
2021/12/24 12:08:57;;;;;;;0.23;0.23;;;-3.60;99.90;;;;;;4823175;29;20132;-67
2021/12/24 12:11:26;;;;;;;3.20;0.50;;;-3.60;99.90;;;;;;4817862;29;20196;-65
2021/12/24 12:14:01;;;;;;;0.90;0.60;;;-3.60;99.90;;;;;;4823235;29;20065;-67
2021/12/24 12:16:43;;;;;;;3.17;0.70;;;-3.60;99.90;;;;;;4822492;29;20144;-67
2021/12/24 12:19:29;;;;;;;0.73;0.50;;;-3.60;99.90;;;;;;4824790;29;20075;-64
2021/12/24 12:22:13;;;;;;;1.60;0.80;;;-3.60;99.90;;;;;;4824642;29;20163;-67
2021/12/24 12:24:59;;;;;;;0.73;0.30;;;-3.60;99.90;;;;;;4826704;29;20112;-64
2021/12/24 12:27:51;;;;;;;1.57;0.40;;;-3.60;99.90;;;;;;4826299;29;20044;-67
2021/12/24 12:30:21;;;;;;;2.40;1.83;;;-3.60;99.90;;;;;;4827574;29;22118;-65
2021/12/24 12:32:50;;;;;;;2.93;0.63;;;-3.60;99.90;;;;;;4827341;29;20163;-66
2021/12/24 12:35:18;;;;;;;3.47;0.90;;;-3.60;99.90;;;;;;4826672;29;20364;-65
2021/12/24 12:37:56;;;;;;;1.47;1.23;;;-3.70;99.90;;;;;;4829337;29;20904;-65
2021/12/24 12:40:34;;;;;;;3.67;1.03;;;-3.60;99.90;;;;;;4824379;29;20533;-66
2021/12/24 12:43:05;;;;;;;0.63;0.63;;;-3.60;99.90;;;;;;4827778;29;20565;-68
2021/12/24 12:45:32;;;;;;;4.60;1.27;;;-3.60;99.90;;;;;;4825865;29;20072;-69
2021/12/24 12:48:02;;;;;;;2.80;0.80;;;-3.60;99.90;;;;;;4826680;29;20053;-70
2021/12/24 12:50:29;;;;;;;1.27;0.63;;;-3.50;99.90;;;;;;4825099;29;20056;-68
2021/12/24 12:53:36;;;;;;;3.00;1.00;;;-3.50;99.90;;;;;;4827733;29;20127;-72
2021/12/24 12:56:22;;;;;;;2.07;0.67;;;-3.60;99.90;;;;;;4827987;29;20056;-64
2021/12/24 12:59:06;;;;;;;3.27;1.03;;;-3.60;99.90;;;;;;4824306;29;20121;-69
2021/12/24 13:01:56;;;;;;;1.83;0.53;;;-3.60;99.90;;;;;;4829735;29;20142;-69
2021/12/24 13:04:23;;;;;;;1.87;0.93;;;-3.60;99.90;;;;;;4827747;29;20129;-66
2021/12/24 13:06:51;;;;;;;1.00;0.57;;;-3.50;99.90;;;;;;4831236;29;20956;-66
2021/12/24 13:09:37;;;;;;;1.37;0.70;;;-3.50;99.90;;;;;;4826248;29;20071;-69
2021/12/24 13:12:05;;;;;;;4.83;1.20;;;-3.50;99.90;;;;;;4822751;29;20080;-69
2021/12/24 13:14:35;;;;;;;3.20;0.90;;;-3.50;99.90;;;;;;4822141;29;20063;-66
2021/12/24 13:22:26;;;;;;;1.87;0.50;;;-3.40;99.90;;;;;;4828361;29;20060;-71
2021/12/24 13:25:01;;;;;;;1.03;0.40;;;-3.40;99.90;;;;;;4824168;29;20128;-66
2021/12/24 13:27:32;;;;;;;4.50;0.50;;;-3.40;99.90;;;;;;4826414;29;20086;-62
2021/12/24 13:30:21;;;;;;;1.77;0.60;;;-3.30;99.90;;;;;;4827233;29;20143;-66
2021/12/24 13:33:00;;;;;;;1.30;0.50;;;-3.30;99.90;;;;;;4825171;29;20148;-62
2021/12/24 13:35:36;;;;;;;1.45;0.77;;;-3.30;99.90;;;;;;4826459;29;20057;-65
2021/12/24 13:38:04;;;;;;;1.07;0.70;;;-3.30;99.90;;;;;;4829687;29;20135;-65
2021/12/24 13:40:34;;;;;;;5.57;0.93;;;-3.20;99.90;;;;;;4821361;29;20099;-65
2021/12/24 13:43:07;;;;;;;0.68;0.40;;;-3.30;99.90;;;;;;4823029;29;20226;-71
2021/12/24 13:45:38;;;;;;;0.93;0.33;;;-3.30;99.90;;;;;;4823261;29;20064;-69
2021/12/24 13:48:15;;;;;;;1.63;0.60;;;-3.30;99.90;;;;;;4825746;29;20059;-65
2021/12/24 13:56:19;;;;;;;0.70;0.47;;;-3.20;99.90;;;;;;4824124;29;21084;-63
2021/12/24 13:58:50;;;;;;;3.70;0.60;;;-3.20;99.90;;;;;;4823117;29;20056;-63
2021/12/24 14:01:23;;;;;;;1.43;0.73;;;-3.20;99.90;;;;;;4825860;29;20064;-64
2021/12/24 14:03:50;;;;;;;1.13;0.77;;;-3.30;99.90;;;;;;4824172;29;20159;-63
2021/12/24 14:06:18;;;;;;;1.73;0.60;;;-3.30;99.90;;;;;;4817159;29;21124;-63
2021/12/24 14:08:45;;;;;;;1.17;0.80;;;-3.30;99.90;;;;;;4820081;29;20076;-64
2021/12/24 14:11:13;;;;;;;2.87;0.93;;;-3.30;99.90;;;;;;4821658;29;20212;-63
2021/12/24 14:13:46;;;;;;;3.33;0.70;;;-3.30;99.90;;;;;;4821043;29;20404;-65
2021/12/24 14:19:08;;;;;;;4.57;0.80;;;-3.40;99.90;;;;;;4819934;29;20159;-63
2021/12/24 14:21:46;;;;;;;2.07;0.73;;;-3.40;99.90;;;;;;4822967;29;20056;-67
2021/12/24 14:24:27;;;;;;;2.37;0.77;;;-3.30;99.90;;;;;;4820096;29;20072;-65
2021/12/24 14:26:59;;;;;;;1.07;0.50;;;-3.40;99.90;;;;;;4821402;29;20057;-66
2021/12/24 14:29:37;;;;;;;2.43;2.33;;;-3.40;99.90;;;;;;4822920;29;20083;-67
2021/12/24 14:32:16;;;;;;;2.60;0.47;;;-3.40;99.90;;;;;;4824907;29;20196;-66
2021/12/24 14:34:50;;;;;;;3.13;0.90;;;-3.40;99.90;;;;;;4819411;29;21519;-67
2021/12/24 14:37:33;;;;;;;2.00;0.60;;;-3.40;99.90;;;;;;4821415;29;20053;-65
2021/12/24 14:40:05;;;;;;;2.60;0.63;;;-3.40;99.90;;;;;;4824754;29;20057;-63
2021/12/24 14:42:47;;;;;;;4.67;1.20;;;-3.40;99.90;;;;;;4819369;29;20064;-67
2021/12/24 14:45:34;;;;;;;0.73;0.53;;;-3.40;99.90;;;;;;4822200;29;20124;-65
2021/12/24 14:48:29;;;;;;;2.50;0.67;;;-3.40;99.90;;;;;;4821579;29;20173;-62
2021/12/24 14:51:01;;;;;;;5.53;1.23;;;-3.40;99.90;;;;;;4819747;29;21294;-64
2021/12/24 14:53:37;;;;;;;4.03;1.30;;;-3.50;99.90;;;;;;4826846;29;20061;-64
2021/12/24 14:56:10;;;;;;;4.67;0.87;;;-3.40;99.90;;;;;;4824896;29;20057;-65
2021/12/24 14:58:36;;;;;;;1.90;0.90;;;-3.40;99.90;;;;;;4824513;29;20130;-63
2021/12/24 15:01:17;;;;;;;4.83;1.23;;;-3.40;99.90;;;;;;4824262;29;21705;-62
2021/12/24 15:03:46;;;;;;;0.37;0.37;;;-3.40;99.90;;;;;;4823777;29;20072;-64
2021/12/24 15:06:18;;;;;;;3.60;1.03;;;-3.40;99.90;;;;;;4824303;29;20159;-66
2021/12/24 15:08:47;;;;;;;3.13;0.50;;;-3.40;99.90;;;;;;4822261;29;20095;-64
2021/12/24 15:11:23;;;;;;;9.43;1.63;;;-3.40;99.90;;;;;;4817513;29;20059;-70
2021/12/24 15:13:54;;;;;;;0.97;0.93;;;-3.40;99.90;;;;;;4822952;29;20352;-67
2021/12/24 15:16:27;;;;;;;6.10;1.03;;;-3.50;99.90;;;;;;4820914;29;20547;-66